Irrigon, Oregon
Current Conditions -  °F | °C
As of 11:53 PM on Friday 28 Nov 2014 (Local Time) from KHRI Reporting Station
Overcast Overcast  
Wind Chill: 41°   Ceiling: 4400
Heat Index: 48°   Visibility: 10mi
Dew Point: 36°   Wind: 22mph
Humidity: 63%   Direction: 250°WSW
Pressure: 29.45"   Gusts: 29mph
Location:  45.9°N, 119.49°W
Report Text: KHRI 290753Z AUTO 25019G25KT 10SM OVC044 09/02 A2945 RMK AO2 PK WND 26030/0707 SLP970 T00890022 401940089
Loading
Personal Weather Stations






























Interactive Weather Map New forecast layout! Learn more

10-Day Weather Forecast

Advertisements
Track Severe Weather on mobile